sensor_id;sensor_type;location;lat;lon;timestamp;P1;durP1;ratioP1;P2;durP2;ratioP2
74908;SDS011;63468;52.058;4.824;2024-03-02T00:00:57;12.15;;;11.15;;
74908;SDS011;63468;52.058;4.824;2024-03-02T00:03:22;11.65;;;10.75;;
74908;SDS011;63468;52.058;4.824;2024-03-02T00:05:48;12.75;;;11.82;;
74908;SDS011;63468;52.058;4.824;2024-03-02T00:08:17;11.48;;;10.68;;
74908;SDS011;63468;52.058;4.824;2024-03-02T00:10:50;13.48;;;12.48;;
74908;SDS011;63468;52.058;4.824;2024-03-02T00:13:16;13.18;;;12.27;;
74908;SDS011;63468;52.058;4.824;2024-03-02T00:15:46;12.50;;;11.60;;
74908;SDS011;63468;52.058;4.824;2024-03-02T00:18:19;13.38;;;12.48;;
74908;SDS011;63468;52.058;4.824;2024-03-02T00:20:46;12.95;;;12.05;;
74908;SDS011;63468;52.058;4.824;2024-03-02T00:23:14;14.40;;;13.40;;
74908;SDS011;63468;52.058;4.824;2024-03-02T00:25:41;14.48;;;13.57;;
74908;SDS011;63468;52.058;4.824;2024-03-02T00:28:19;13.93;;;13.02;;
74908;SDS011;63468;52.058;4.824;2024-03-02T00:30:54;14.27;;;13.38;;
74908;SDS011;63468;52.058;4.824;2024-03-02T00:33:37;15.02;;;13.98;;
74908;SDS011;63468;52.058;4.824;2024-03-02T00:36:11;15.23;;;14.32;;
74908;SDS011;63468;52.058;4.824;2024-03-02T00:38:55;15.75;;;14.75;;
74908;SDS011;63468;52.058;4.824;2024-03-02T00:41:25;15.85;;;14.85;;
74908;SDS011;63468;52.058;4.824;2024-03-02T00:44:02;15.27;;;14.30;;
74908;SDS011;63468;52.058;4.824;2024-03-02T00:46:39;15.05;;;14.05;;
74908;SDS011;63468;52.058;4.824;2024-03-02T00:49:26;15.45;;;14.50;;
74908;SDS011;63468;52.058;4.824;2024-03-02T00:51:53;16.33;;;15.32;;
74908;SDS011;63468;52.058;4.824;2024-03-02T00:54:20;15.70;;;14.70;;
74908;SDS011;63468;52.058;4.824;2024-03-02T00:56:47;16.60;;;15.40;;
74908;SDS011;63468;52.058;4.824;2024-03-02T00:59:12;15.50;;;14.50;;
74908;SDS011;63468;52.058;4.824;2024-03-02T01:01:38;16.17;;;15.10;;
74908;SDS011;63468;52.058;4.824;2024-03-02T01:04:03;16.25;;;15.15;;
74908;SDS011;63468;52.058;4.824;2024-03-02T01:06:31;15.95;;;14.95;;
74908;SDS011;63468;52.058;4.824;2024-03-02T01:08:57;15.82;;;14.60;;
74908;SDS011;63468;52.058;4.824;2024-03-02T01:11:22;15.77;;;14.77;;
74908;SDS011;63468;52.058;4.824;2024-03-02T01:13:48;15.30;;;14.20;;
74908;SDS011;63468;52.058;4.824;2024-03-02T01:16:13;14.95;;;13.85;;
74908;SDS011;63468;52.058;4.824;2024-03-02T01:18:39;14.88;;;13.77;;
74908;SDS011;63468;52.058;4.824;2024-03-02T01:21:04;14.95;;;13.88;;
74908;SDS011;63468;52.058;4.824;2024-03-02T01:23:29;16.58;;;15.40;;
74908;SDS011;63468;52.058;4.824;2024-03-02T01:25:55;16.63;;;15.43;;
74908;SDS011;63468;52.058;4.824;2024-03-02T01:28:20;16.35;;;15.05;;
74908;SDS011;63468;52.058;4.824;2024-03-02T01:30:46;16.17;;;15.07;;
74908;SDS011;63468;52.058;4.824;2024-03-02T01:33:12;15.63;;;14.52;;
74908;SDS011;63468;52.058;4.824;2024-03-02T01:35:37;15.18;;;14.18;;
74908;SDS011;63468;52.058;4.824;2024-03-02T01:38:03;15.68;;;14.68;;
74908;SDS011;63468;52.058;4.824;2024-03-02T01:40:31;15.43;;;14.43;;
74908;SDS011;63468;52.058;4.824;2024-03-02T01:42:57;16.45;;;15.38;;
74908;SDS011;63468;52.058;4.824;2024-03-02T01:45:25;15.93;;;14.82;;
74908;SDS011;63468;52.058;4.824;2024-03-02T01:47:50;17.27;;;16.08;;
74908;SDS011;63468;52.058;4.824;2024-03-02T01:50:16;15.70;;;14.65;;
74908;SDS011;63468;52.058;4.824;2024-03-02T01:52:49;16.70;;;15.50;;
74908;SDS011;63468;52.058;4.824;2024-03-02T01:55:15;16.52;;;15.45;;
74908;SDS011;63468;52.058;4.824;2024-03-02T01:57:40;17.38;;;16.27;;
74908;SDS011;63468;52.058;4.824;2024-03-02T02:00:06;15.90;;;14.90;;
74908;SDS011;63468;52.058;4.824;2024-03-02T02:02:32;16.42;;;15.35;;
74908;SDS011;63468;52.058;4.824;2024-03-02T02:04:57;16.17;;;15.07;;
74908;SDS011;63468;52.058;4.824;2024-03-02T02:07:23;15.95;;;14.95;;
74908;SDS011;63468;52.058;4.824;2024-03-02T02:09:48;15.43;;;14.40;;
74908;SDS011;63468;52.058;4.824;2024-03-02T02:12:13;15.90;;;14.90;;
74908;SDS011;63468;52.058;4.824;2024-03-02T02:14:40;15.60;;;14.60;;
74908;SDS011;63468;52.058;4.824;2024-03-02T02:17:12;15.98;;;14.98;;
74908;SDS011;63468;52.058;4.824;2024-03-02T02:19:37;15.63;;;14.63;;
74908;SDS011;63468;52.058;4.824;2024-03-02T02:22:02;14.65;;;13.75;;
74908;SDS011;63468;52.058;4.824;2024-03-02T02:24:28;15.05;;;14.05;;
74908;SDS011;63468;52.058;4.824;2024-03-02T02:26:53;15.13;;;14.13;;
74908;SDS011;63468;52.058;4.824;2024-03-02T02:29:18;15.18;;;13.95;;
74908;SDS011;63468;52.058;4.824;2024-03-02T02:31:44;14.88;;;13.80;;
74908;SDS011;63468;52.058;4.824;2024-03-02T02:34:09;14.85;;;13.82;;
74908;SDS011;63468;52.058;4.824;2024-03-02T02:36:35;16.40;;;15.40;;
74908;SDS011;63468;52.058;4.824;2024-03-02T02:39:02;14.85;;;13.85;;
74908;SDS011;63468;52.058;4.824;2024-03-02T02:41:29;16.20;;;15.10;;
74908;SDS011;63468;52.058;4.824;2024-03-02T02:43:54;14.95;;;13.85;;
74908;SDS011;63468;52.058;4.824;2024-03-02T02:46:20;16.20;;;15.20;;
74908;SDS011;63468;52.058;4.824;2024-03-02T02:48:45;15.38;;;14.38;;
74908;SDS011;63468;52.058;4.824;2024-03-02T02:51:10;15.77;;;14.77;;
74908;SDS011;63468;52.058;4.824;2024-03-02T02:53:36;15.52;;;14.50;;
74908;SDS011;63468;52.058;4.824;2024-03-02T02:56:05;15.32;;;14.32;;
74908;SDS011;63468;52.058;4.824;2024-03-02T02:58:31;15.73;;;14.63;;
74908;SDS011;63468;52.058;4.824;2024-03-02T03:00:56;16.00;;;14.90;;
74908;SDS011;63468;52.058;4.824;2024-03-02T03:03:21;15.90;;;14.60;;
74908;SDS011;63468;52.058;4.824;2024-03-02T03:05:47;16.30;;;15.20;;
74908;SDS011;63468;52.058;4.824;2024-03-02T03:08:12;16.13;;;15.02;;
74908;SDS011;63468;52.058;4.824;2024-03-02T03:10:37;16.33;;;15.23;;
74908;SDS011;63468;52.058;4.824;2024-03-02T03:13:03;15.82;;;14.73;;
74908;SDS011;63468;52.058;4.824;2024-03-02T03:15:28;15.02;;;14.02;;
74908;SDS011;63468;52.058;4.824;2024-03-02T03:17:54;15.15;;;14.15;;
74908;SDS011;63468;52.058;4.824;2024-03-02T03:20:19;15.98;;;14.75;;
74908;SDS011;63468;52.058;4.824;2024-03-02T03:22:46;14.70;;;13.68;;
74908;SDS011;63468;52.058;4.824;2024-03-02T03:25:11;14.65;;;13.65;;
74908;SDS011;63468;52.058;4.824;2024-03-02T03:27:37;15.60;;;14.60;;
74908;SDS011;63468;52.058;4.824;2024-03-02T03:30:02;15.38;;;14.38;;
74908;SDS011;63468;52.058;4.824;2024-03-02T03:32:28;16.23;;;15.23;;
74908;SDS011;63468;52.058;4.824;2024-03-02T03:34:53;14.38;;;13.38;;
74908;SDS011;63468;52.058;4.824;2024-03-02T03:37:19;14.82;;;13.82;;
74908;SDS011;63468;52.058;4.824;2024-03-02T03:39:44;15.55;;;14.55;;
74908;SDS011;63468;52.058;4.824;2024-03-02T03:42:09;15.27;;;14.27;;
74908;SDS011;63468;52.058;4.824;2024-03-02T03:44:35;15.57;;;14.38;;
74908;SDS011;63468;52.058;4.824;2024-03-02T03:47:00;14.30;;;13.30;;
74908;SDS011;63468;52.058;4.824;2024-03-02T03:49:28;15.02;;;14.02;;
74908;SDS011;63468;52.058;4.824;2024-03-02T03:51:54;14.88;;;13.88;;
74908;SDS011;63468;52.058;4.824;2024-03-02T03:54:19;14.70;;;13.70;;
74908;SDS011;63468;52.058;4.824;2024-03-02T03:56:44;15.05;;;14.02;;
74908;SDS011;63468;52.058;4.824;2024-03-02T03:59:10;15.27;;;14.27;;
74908;SDS011;63468;52.058;4.824;2024-03-02T04:01:35;14.88;;;13.88;;
74908;SDS011;63468;52.058;4.824;2024-03-02T04:04:00;14.80;;;13.80;;
74908;SDS011;63468;52.058;4.824;2024-03-02T04:06:28;14.88;;;13.75;;
74908;SDS011;63468;52.058;4.824;2024-03-02T04:08:53;13.75;;;12.80;;
74908;SDS011;63468;52.058;4.824;2024-03-02T04:11:19;14.88;;;13.88;;
74908;SDS011;63468;52.058;4.824;2024-03-02T04:13:47;14.90;;;13.90;;
74908;SDS011;63468;52.058;4.824;2024-03-02T04:16:12;15.10;;;14.10;;
74908;SDS011;63468;52.058;4.824;2024-03-02T04:18:38;15.20;;;14.15;;
74908;SDS011;63468;52.058;4.824;2024-03-02T04:21:04;14.63;;;13.63;;
74908;SDS011;63468;52.058;4.824;2024-03-02T04:23:30;14.73;;;13.73;;
74908;SDS011;63468;52.058;4.824;2024-03-02T04:25:55;13.93;;;12.90;;
74908;SDS011;63468;52.058;4.824;2024-03-02T04:28:20;13.95;;;12.95;;
74908;SDS011;63468;52.058;4.824;2024-03-02T04:30:46;13.57;;;12.57;;
74908;SDS011;63468;52.058;4.824;2024-03-02T04:33:11;14.60;;;13.60;;
74908;SDS011;63468;52.058;4.824;2024-03-02T04:35:36;14.02;;;13.02;;
74908;SDS011;63468;52.058;4.824;2024-03-02T04:38:02;15.95;;;14.80;;
74908;SDS011;63468;52.058;4.824;2024-03-02T04:40:28;14.55;;;13.55;;
74908;SDS011;63468;52.058;4.824;2024-03-02T04:42:53;13.82;;;12.93;;
74908;SDS011;63468;52.058;4.824;2024-03-02T04:45:19;15.27;;;14.27;;
74908;SDS011;63468;52.058;4.824;2024-03-02T04:47:44;14.80;;;13.80;;
74908;SDS011;63468;52.058;4.824;2024-03-02T04:50:09;16.08;;;14.77;;
74908;SDS011;63468;52.058;4.824;2024-03-02T04:52:35;14.88;;;13.88;;
74908;SDS011;63468;52.058;4.824;2024-03-02T04:55:00;13.93;;;12.93;;
74908;SDS011;63468;52.058;4.824;2024-03-02T04:57:42;14.32;;;13.32;;
74908;SDS011;63468;52.058;4.824;2024-03-02T05:00:08;14.20;;;13.23;;
74908;SDS011;63468;52.058;4.824;2024-03-02T05:02:34;15.02;;;13.98;;
74908;SDS011;63468;52.058;4.824;2024-03-02T05:05:00;13.48;;;12.57;;
74908;SDS011;63468;52.058;4.824;2024-03-02T05:07:25;14.30;;;13.23;;
74908;SDS011;63468;52.058;4.824;2024-03-02T05:09:50;13.80;;;12.80;;
74908;SDS011;63468;52.058;4.824;2024-03-02T05:12:16;13.25;;;12.35;;
74908;SDS011;63468;52.058;4.824;2024-03-02T05:15:00;14.13;;;12.90;;
74908;SDS011;63468;52.058;4.824;2024-03-02T05:17:25;13.40;;;12.35;;
74908;SDS011;63468;52.058;4.824;2024-03-02T05:19:51;13.68;;;12.55;;
74908;SDS011;63468;52.058;4.824;2024-03-02T05:22:16;13.60;;;12.60;;
74908;SDS011;63468;52.058;4.824;2024-03-02T05:24:41;13.07;;;11.98;;
74908;SDS011;63468;52.058;4.824;2024-03-02T05:27:07;13.45;;;12.35;;
74908;SDS011;63468;52.058;4.824;2024-03-02T05:29:32;14.45;;;13.45;;
74908;SDS011;63468;52.058;4.824;2024-03-02T05:31:58;14.13;;;13.13;;
74908;SDS011;63468;52.058;4.824;2024-03-02T05:34:23;14.32;;;13.23;;
74908;SDS011;63468;52.058;4.824;2024-03-02T05:36:48;14.80;;;13.57;;
74908;SDS011;63468;52.058;4.824;2024-03-02T05:39:14;13.85;;;12.85;;
74908;SDS011;63468;52.058;4.824;2024-03-02T05:41:39;14.68;;;13.68;;
74908;SDS011;63468;52.058;4.824;2024-03-02T05:44:04;14.15;;;13.07;;
74908;SDS011;63468;52.058;4.824;2024-03-02T05:46:30;14.60;;;13.60;;
74908;SDS011;63468;52.058;4.824;2024-03-02T05:48:55;14.07;;;12.98;;
74908;SDS011;63468;52.058;4.824;2024-03-02T05:51:21;14.40;;;13.18;;
74908;SDS011;63468;52.058;4.824;2024-03-02T05:53:46;14.45;;;13.45;;
74908;SDS011;63468;52.058;4.824;2024-03-02T05:56:11;14.95;;;13.85;;
74908;SDS011;63468;52.058;4.824;2024-03-02T05:58:37;14.55;;;13.55;;
74908;SDS011;63468;52.058;4.824;2024-03-02T06:01:32;14.45;;;13.40;;
74908;SDS011;63468;52.058;4.824;2024-03-02T06:03:58;15.00;;;13.90;;
74908;SDS011;63468;52.058;4.824;2024-03-02T06:06:26;14.50;;;13.40;;
74908;SDS011;63468;52.058;4.824;2024-03-02T06:08:51;15.02;;;13.55;;
74908;SDS011;63468;52.058;4.824;2024-03-02T06:11:17;15.10;;;14.00;;
74908;SDS011;63468;52.058;4.824;2024-03-02T06:13:44;14.57;;;13.55;;
74908;SDS011;63468;52.058;4.824;2024-03-02T06:16:09;14.32;;;13.32;;
74908;SDS011;63468;52.058;4.824;2024-03-02T06:18:35;14.70;;;13.55;;
74908;SDS011;63468;52.058;4.824;2024-03-02T06:21:00;13.90;;;12.80;;
74908;SDS011;63468;52.058;4.824;2024-03-02T06:23:28;13.90;;;12.60;;
74908;SDS011;63468;52.058;4.824;2024-03-02T06:25:54;13.45;;;12.20;;
74908;SDS011;63468;52.058;4.824;2024-03-02T06:28:19;12.38;;;11.25;;
74908;SDS011;63468;52.058;4.824;2024-03-02T06:30:45;12.85;;;11.93;;
74908;SDS011;63468;52.058;4.824;2024-03-02T06:33:10;12.82;;;11.82;;
74908;SDS011;63468;52.058;4.824;2024-03-02T06:35:36;12.43;;;11.13;;
74908;SDS011;63468;52.058;4.824;2024-03-02T06:38:01;11.75;;;10.85;;
74908;SDS011;63468;52.058;4.824;2024-03-02T06:40:27;11.85;;;10.73;;
74908;SDS011;63468;52.058;4.824;2024-03-02T06:42:52;11.35;;;10.35;;
74908;SDS011;63468;52.058;4.824;2024-03-02T06:45:18;11.80;;;10.60;;
74908;SDS011;63468;52.058;4.824;2024-03-02T06:47:43;11.85;;;10.75;;
74908;SDS011;63468;52.058;4.824;2024-03-02T06:50:08;11.05;;;10.23;;
74908;SDS011;63468;52.058;4.824;2024-03-02T06:52:34;11.57;;;10.48;;
74908;SDS011;63468;52.058;4.824;2024-03-02T06:55:00;11.30;;;10.40;;
74908;SDS011;63468;52.058;4.824;2024-03-02T06:57:26;11.15;;;10.25;;
74908;SDS011;63468;52.058;4.824;2024-03-02T06:59:51;10.73;;;9.82;;
74908;SDS011;63468;52.058;4.824;2024-03-02T07:02:19;11.10;;;10.10;;
74908;SDS011;63468;52.058;4.824;2024-03-02T07:04:45;11.65;;;10.75;;
74908;SDS011;63468;52.058;4.824;2024-03-02T07:07:10;11.10;;;10.10;;
74908;SDS011;63468;52.058;4.824;2024-03-02T07:09:36;10.85;;;9.95;;
74908;SDS011;63468;52.058;4.824;2024-03-02T07:12:01;10.25;;;9.45;;
74908;SDS011;63468;52.058;4.824;2024-03-02T07:14:27;10.85;;;9.73;;
74908;SDS011;63468;52.058;4.824;2024-03-02T07:17:12;10.48;;;9.38;;
74908;SDS011;63468;52.058;4.824;2024-03-02T07:19:38;11.15;;;10.10;;
74908;SDS011;63468;52.058;4.824;2024-03-02T07:22:07;10.68;;;9.77;;
74908;SDS011;63468;52.058;4.824;2024-03-02T07:24:40;11.45;;;10.43;;
74908;SDS011;63468;52.058;4.824;2024-03-02T07:27:09;11.38;;;10.48;;
74908;SDS011;63468;52.058;4.824;2024-03-02T07:29:34;11.60;;;10.70;;
74908;SDS011;63468;52.058;4.824;2024-03-02T07:32:00;11.82;;;10.82;;
74908;SDS011;63468;52.058;4.824;2024-03-02T07:34:25;11.10;;;10.20;;
74908;SDS011;63468;52.058;4.824;2024-03-02T07:36:50;11.73;;;10.82;;
74908;SDS011;63468;52.058;4.824;2024-03-02T07:39:16;11.63;;;10.63;;
74908;SDS011;63468;52.058;4.824;2024-03-02T07:41:41;12.23;;;11.07;;
74908;SDS011;63468;52.058;4.824;2024-03-02T07:44:07;12.40;;;11.38;;
74908;SDS011;63468;52.058;4.824;2024-03-02T07:46:32;11.82;;;10.73;;
74908;SDS011;63468;52.058;4.824;2024-03-02T07:48:57;11.05;;;10.15;;
74908;SDS011;63468;52.058;4.824;2024-03-02T07:51:23;12.13;;;10.32;;
74908;SDS011;63468;52.058;4.824;2024-03-02T07:53:48;11.48;;;10.48;;
74908;SDS011;63468;52.058;4.824;2024-03-02T07:56:14;10.23;;;9.25;;
74908;SDS011;63468;52.058;4.824;2024-03-02T07:58:46;10.57;;;9.63;;
74908;SDS011;63468;52.058;4.824;2024-03-02T08:01:13;10.48;;;9.48;;
74908;SDS011;63468;52.058;4.824;2024-03-02T08:03:38;10.80;;;9.80;;
74908;SDS011;63468;52.058;4.824;2024-03-02T08:06:03;13.68;;;9.88;;
74908;SDS011;63468;52.058;4.824;2024-03-02T08:08:29;11.20;;;10.30;;
74908;SDS011;63468;52.058;4.824;2024-03-02T08:10:54;11.18;;;10.38;;
74908;SDS011;63468;52.058;4.824;2024-03-02T08:13:19;10.48;;;9.57;;
74908;SDS011;63468;52.058;4.824;2024-03-02T08:15:45;11.45;;;10.48;;
74908;SDS011;63468;52.058;4.824;2024-03-02T08:18:10;14.68;;;10.60;;
74908;SDS011;63468;52.058;4.824;2024-03-02T08:20:35;11.32;;;10.30;;
74908;SDS011;63468;52.058;4.824;2024-03-02T08:23:01;11.38;;;10.48;;
74908;SDS011;63468;52.058;4.824;2024-03-02T08:25:26;11.13;;;10.23;;
74908;SDS011;63468;52.058;4.824;2024-03-02T08:27:52;11.10;;;10.20;;
74908;SDS011;63468;52.058;4.824;2024-03-02T08:30:17;12.20;;;9.88;;
74908;SDS011;63468;52.058;4.824;2024-03-02T08:32:43;10.82;;;9.73;;
74908;SDS011;63468;52.058;4.824;2024-03-02T08:35:10;10.45;;;9.45;;
74908;SDS011;63468;52.058;4.824;2024-03-02T08:37:36;10.00;;;9.20;;
74908;SDS011;63468;52.058;4.824;2024-03-02T08:40:03;9.48;;;8.63;;
74908;SDS011;63468;52.058;4.824;2024-03-02T08:42:29;9.75;;;8.95;;
74908;SDS011;63468;52.058;4.824;2024-03-02T08:44:55;11.05;;;8.85;;
74908;SDS011;63468;52.058;4.824;2024-03-02T08:47:20;10.00;;;9.10;;
74908;SDS011;63468;52.058;4.824;2024-03-02T08:49:46;10.25;;;9.35;;
74908;SDS011;63468;52.058;4.824;2024-03-02T08:52:11;10.50;;;9.50;;
74908;SDS011;63468;52.058;4.824;2024-03-02T08:54:36;15.27;;;9.50;;
74908;SDS011;63468;52.058;4.824;2024-03-02T08:57:02;10.85;;;9.88;;
74908;SDS011;63468;52.058;4.824;2024-03-02T08:59:28;11.23;;;9.48;;
74908;SDS011;63468;52.058;4.824;2024-03-02T09:01:53;10.45;;;9.45;;
74908;SDS011;63468;52.058;4.824;2024-03-02T09:04:18;10.32;;;9.32;;
74908;SDS011;63468;52.058;4.824;2024-03-02T09:06:44;10.73;;;9.73;;
74908;SDS011;63468;52.058;4.824;2024-03-02T09:09:09;10.18;;;9.20;;
74908;SDS011;63468;52.058;4.824;2024-03-02T09:11:34;11.13;;;10.10;;
74908;SDS011;63468;52.058;4.824;2024-03-02T09:14:00;11.40;;;9.90;;
74908;SDS011;63468;52.058;4.824;2024-03-02T09:16:25;10.73;;;9.73;;
74908;SDS011;63468;52.058;4.824;2024-03-02T09:18:55;10.85;;;9.85;;
74908;SDS011;63468;52.058;4.824;2024-03-02T09:21:21;10.93;;;9.93;;
74908;SDS011;63468;52.058;4.824;2024-03-02T09:23:47;10.90;;;9.82;;
74908;SDS011;63468;52.058;4.824;2024-03-02T09:26:13;10.65;;;9.75;;
74908;SDS011;63468;52.058;4.824;2024-03-02T09:28:42;11.07;;;10.10;;
74908;SDS011;63468;52.058;4.824;2024-03-02T09:31:08;11.27;;;10.35;;
74908;SDS011;63468;52.058;4.824;2024-03-02T09:33:33;11.00;;;10.00;;
74908;SDS011;63468;52.058;4.824;2024-03-02T09:35:58;11.18;;;10.18;;
74908;SDS011;63468;52.058;4.824;2024-03-02T09:38:24;12.05;;;10.77;;
74908;SDS011;63468;52.058;4.824;2024-03-02T09:40:49;11.70;;;10.05;;
74908;SDS011;63468;52.058;4.824;2024-03-02T09:43:15;11.75;;;10.50;;
74908;SDS011;63468;52.058;4.824;2024-03-02T09:45:40;11.57;;;10.50;;
74908;SDS011;63468;52.058;4.824;2024-03-02T09:48:06;11.20;;;10.10;;
74908;SDS011;63468;52.058;4.824;2024-03-02T09:50:32;10.70;;;9.60;;
74908;SDS011;63468;52.058;4.824;2024-03-02T09:52:57;11.63;;;10.30;;
74908;SDS011;63468;52.058;4.824;2024-03-02T09:55:24;10.70;;;9.90;;
74908;SDS011;63468;52.058;4.824;2024-03-02T09:57:50;10.93;;;9.88;;
74908;SDS011;63468;52.058;4.824;2024-03-02T10:00:16;10.57;;;9.30;;
74908;SDS011;63468;52.058;4.824;2024-03-02T10:02:42;12.63;;;9.82;;
74908;SDS011;63468;52.058;4.824;2024-03-02T10:05:08;10.77;;;9.88;;
74908;SDS011;63468;52.058;4.824;2024-03-02T10:07:34;10.38;;;9.40;;
74908;SDS011;63468;52.058;4.824;2024-03-02T10:10:00;12.05;;;9.68;;
74908;SDS011;63468;52.058;4.824;2024-03-02T10:12:37;11.60;;;9.77;;
74908;SDS011;63468;52.058;4.824;2024-03-02T10:15:03;10.88;;;9.77;;
74908;SDS011;63468;52.058;4.824;2024-03-02T10:17:30;10.57;;;9.68;;
74908;SDS011;63468;52.058;4.824;2024-03-02T10:19:56;10.40;;;9.50;;
74908;SDS011;63468;52.058;4.824;2024-03-02T10:22:22;10.57;;;9.63;;
74908;SDS011;63468;52.058;4.824;2024-03-02T10:24:48;12.57;;;11.38;;
74908;SDS011;63468;52.058;4.824;2024-03-02T10:27:17;11.95;;;10.75;;
74908;SDS011;63468;52.058;4.824;2024-03-02T10:29:47;11.30;;;10.30;;
74908;SDS011;63468;52.058;4.824;2024-03-02T10:32:12;11.55;;;10.57;;
74908;SDS011;63468;52.058;4.824;2024-03-02T10:34:41;11.45;;;10.35;;
74908;SDS011;63468;52.058;4.824;2024-03-02T10:37:07;11.52;;;10.35;;
74908;SDS011;63468;52.058;4.824;2024-03-02T10:39:34;12.05;;;10.82;;
74908;SDS011;63468;52.058;4.824;2024-03-02T10:42:01;11.30;;;10.40;;
74908;SDS011;63468;52.058;4.824;2024-03-02T10:44:28;11.00;;;10.00;;
74908;SDS011;63468;52.058;4.824;2024-03-02T10:46:53;11.90;;;10.90;;
74908;SDS011;63468;52.058;4.824;2024-03-02T10:49:20;11.68;;;10.68;;
74908;SDS011;63468;52.058;4.824;2024-03-02T10:51:50;15.98;;;11.00;;
74908;SDS011;63468;52.058;4.824;2024-03-02T10:54:15;11.55;;;10.38;;
74908;SDS011;63468;52.058;4.824;2024-03-02T10:56:42;11.82;;;10.82;;
74908;SDS011;63468;52.058;4.824;2024-03-02T11:01:53;12.55;;;11.45;;
74908;SDS011;63468;52.058;4.824;2024-03-02T11:04:21;12.38;;;11.27;;
74908;SDS011;63468;52.058;4.824;2024-03-02T11:06:51;11.95;;;10.85;;
74908;SDS011;63468;52.058;4.824;2024-03-02T11:09:18;12.10;;;11.00;;
74908;SDS011;63468;52.058;4.824;2024-03-02T11:11:45;11.82;;;10.82;;
74908;SDS011;63468;52.058;4.824;2024-03-02T11:14:21;12.35;;;11.15;;
74908;SDS011;63468;52.058;4.824;2024-03-02T11:16:49;12.75;;;11.48;;
74908;SDS011;63468;52.058;4.824;2024-03-02T11:19:15;12.50;;;11.30;;
74908;SDS011;63468;52.058;4.824;2024-03-02T11:21:41;12.57;;;11.63;;
74908;SDS011;63468;52.058;4.824;2024-03-02T11:26:58;12.10;;;11.00;;
74908;SDS011;63468;52.058;4.824;2024-03-02T11:32:05;13.15;;;12.15;;
74908;SDS011;63468;52.058;4.824;2024-03-02T11:34:35;13.98;;;12.73;;
74908;SDS011;63468;52.058;4.824;2024-03-02T11:37:01;13.65;;;12.02;;
74908;SDS011;63468;52.058;4.824;2024-03-02T11:39:27;14.32;;;12.13;;
74908;SDS011;63468;52.058;4.824;2024-03-02T11:41:53;13.35;;;12.25;;
74908;SDS011;63468;52.058;4.824;2024-03-02T11:44:22;13.30;;;12.20;;
74908;SDS011;63468;52.058;4.824;2024-03-02T11:47:06;13.27;;;12.18;;
74908;SDS011;63468;52.058;4.824;2024-03-02T11:49:36;13.65;;;12.55;;
74908;SDS011;63468;52.058;4.824;2024-03-02T11:52:10;14.38;;;13.13;;
74908;SDS011;63468;52.058;4.824;2024-03-02T11:54:39;13.48;;;12.45;;
74908;SDS011;63468;52.058;4.824;2024-03-02T11:57:12;14.20;;;12.82;;
74908;SDS011;63468;52.058;4.824;2024-03-02T11:59:39;13.32;;;12.15;;
74908;SDS011;63468;52.058;4.824;2024-03-02T12:02:05;13.32;;;12.23;;
74908;SDS011;63468;52.058;4.824;2024-03-02T12:04:31;14.75;;;13.55;;
74908;SDS011;63468;52.058;4.824;2024-03-02T12:07:00;13.88;;;12.70;;
74908;SDS011;63468;52.058;4.824;2024-03-02T12:09:26;13.60;;;12.60;;
74908;SDS011;63468;52.058;4.824;2024-03-02T12:12:04;13.18;;;12.02;;
74908;SDS011;63468;52.058;4.824;2024-03-02T12:14:31;15.02;;;13.55;;
74908;SDS011;63468;52.058;4.824;2024-03-02T12:16:57;13.00;;;12.00;;
74908;SDS011;63468;52.058;4.824;2024-03-02T12:19:23;13.30;;;12.30;;
74908;SDS011;63468;52.058;4.824;2024-03-02T12:21:49;14.18;;;13.07;;
74908;SDS011;63468;52.058;4.824;2024-03-02T12:24:15;14.55;;;13.25;;
74908;SDS011;63468;52.058;4.824;2024-03-02T12:26:40;14.50;;;13.10;;
74908;SDS011;63468;52.058;4.824;2024-03-02T12:29:06;13.25;;;12.15;;
74908;SDS011;63468;52.058;4.824;2024-03-02T12:31:31;12.93;;;12.02;;
74908;SDS011;63468;52.058;4.824;2024-03-02T12:33:57;13.82;;;12.75;;
74908;SDS011;63468;52.058;4.824;2024-03-02T12:36:23;14.27;;;12.95;;
74908;SDS011;63468;52.058;4.824;2024-03-02T12:38:48;13.65;;;12.48;;
74908;SDS011;63468;52.058;4.824;2024-03-02T12:41:18;13.93;;;12.82;;
74908;SDS011;63468;52.058;4.824;2024-03-02T12:43:43;13.82;;;12.82;;
74908;SDS011;63468;52.058;4.824;2024-03-02T12:46:08;14.30;;;13.05;;
74908;SDS011;63468;52.058;4.824;2024-03-02T12:48:34;13.85;;;12.85;;
74908;SDS011;63468;52.058;4.824;2024-03-02T12:51:00;13.43;;;12.43;;
74908;SDS011;63468;52.058;4.824;2024-03-02T12:53:26;14.43;;;13.32;;
74908;SDS011;63468;52.058;4.824;2024-03-02T12:55:51;13.20;;;12.00;;
74908;SDS011;63468;52.058;4.824;2024-03-02T12:58:19;13.73;;;12.57;;
74908;SDS011;63468;52.058;4.824;2024-03-02T13:00:47;12.85;;;11.82;;
74908;SDS011;63468;52.058;4.824;2024-03-02T13:03:13;14.23;;;13.13;;
74908;SDS011;63468;52.058;4.824;2024-03-02T13:05:39;13.70;;;12.70;;
74908;SDS011;63468;52.058;4.824;2024-03-02T13:08:04;13.55;;;12.35;;
74908;SDS011;63468;52.058;4.824;2024-03-02T13:10:32;14.02;;;12.82;;
74908;SDS011;63468;52.058;4.824;2024-03-02T13:12:57;13.35;;;12.15;;
74908;SDS011;63468;52.058;4.824;2024-03-02T13:15:23;13.98;;;12.45;;
74908;SDS011;63468;52.058;4.824;2024-03-02T13:17:48;13.30;;;12.10;;
74908;SDS011;63468;52.058;4.824;2024-03-02T13:20:14;13.60;;;12.50;;
74908;SDS011;63468;52.058;4.824;2024-03-02T13:22:40;12.98;;;11.88;;
74908;SDS011;63468;52.058;4.824;2024-03-02T13:25:05;13.55;;;12.38;;
74908;SDS011;63468;52.058;4.824;2024-03-02T13:27:34;13.00;;;11.77;;
74908;SDS011;63468;52.058;4.824;2024-03-02T13:29:59;11.35;;;10.45;;
74908;SDS011;63468;52.058;4.824;2024-03-02T13:32:25;11.82;;;10.73;;
74908;SDS011;63468;52.058;4.824;2024-03-02T13:34:50;11.50;;;10.48;;
74908;SDS011;63468;52.058;4.824;2024-03-02T13:37:16;11.30;;;10.23;;
74908;SDS011;63468;52.058;4.824;2024-03-02T13:39:41;11.57;;;10.63;;
74908;SDS011;63468;52.058;4.824;2024-03-02T13:42:07;11.13;;;10.13;;
74908;SDS011;63468;52.058;4.824;2024-03-02T13:44:34;10.75;;;9.75;;
74908;SDS011;63468;52.058;4.824;2024-03-02T13:47:00;17.60;;;9.93;;
74908;SDS011;63468;52.058;4.824;2024-03-02T13:49:25;10.77;;;9.85;;
74908;SDS011;63468;52.058;4.824;2024-03-02T13:51:58;10.68;;;9.68;;
74908;SDS011;63468;52.058;4.824;2024-03-02T13:54:25;11.23;;;10.23;;
74908;SDS011;63468;52.058;4.824;2024-03-02T13:56:51;11.18;;;10.23;;
74908;SDS011;63468;52.058;4.824;2024-03-02T13:59:17;10.68;;;9.77;;
74908;SDS011;63468;52.058;4.824;2024-03-02T14:01:42;10.45;;;9.45;;
74908;SDS011;63468;52.058;4.824;2024-03-02T14:04:07;9.75;;;8.00;;
74908;SDS011;63468;52.058;4.824;2024-03-02T14:06:33;9.98;;;9.02;;
74908;SDS011;63468;52.058;4.824;2024-03-02T14:08:59;10.48;;;9.38;;
74908;SDS011;63468;52.058;4.824;2024-03-02T14:11:24;10.82;;;9.48;;
74908;SDS011;63468;52.058;4.824;2024-03-02T14:13:50;11.40;;;9.00;;
74908;SDS011;63468;52.058;4.824;2024-03-02T14:16:25;10.85;;;8.65;;
74908;SDS011;63468;52.058;4.824;2024-03-02T14:18:50;13.20;;;9.70;;
74908;SDS011;63468;52.058;4.824;2024-03-02T14:21:15;9.93;;;8.68;;
74908;SDS011;63468;52.058;4.824;2024-03-02T14:23:41;11.38;;;8.60;;
74908;SDS011;63468;52.058;4.824;2024-03-02T14:26:06;11.60;;;8.40;;
74908;SDS011;63468;52.058;4.824;2024-03-02T14:28:31;10.35;;;8.25;;